Time;durP1;ratioP1;P1;durP2;ratioP2;P2;SDS_P1;SDS_P2;PMS_P1;PMS_P2;Temp;Humidity;BMP_temperature;BMP_pressure;BME280_temperature;BME280_humidity;BME280_pressure;Samples;Min_cycle;Max_cycle;Signal;HPM_P1;HPM_P2
2022/11/03 00:00:36;;;;;;;80.10;29.95;;;;;;;;;;6267962;28;20049;-64
2022/11/03 00:03:36;;;;;;;73.18;28.95;;;;;;;;;;6260076;28;20082;-67
2022/11/03 00:06:39;;;;;;;77.03;31.98;;;;;;;;;;6270862;28;20052;-64
2022/11/03 00:09:39;;;;;;;80.38;30.92;;;;;;;;;;6274087;28;20049;-66
2022/11/03 00:12:40;;;;;;;81.88;30.52;;;;;;;;;;6266911;28;20052;-65
2022/11/03 00:15:47;;;;;;;69.60;27.27;;;;;;;;;;6276676;28;20049;-65
2022/11/03 00:18:48;;;;;;;79.78;29.30;;;;;;;;;;6266430;28;20052;-66
2022/11/03 00:21:49;;;;;;;76.57;31.20;;;;;;;;;;6266602;28;20053;-67
2022/11/03 00:24:49;;;;;;;76.05;29.58;;;;;;;;;;6262712;28;20056;-64
2022/11/03 00:27:54;;;;;;;91.78;31.88;;;;;;;;;;6265092;28;20078;-64
2022/11/03 00:30:54;;;;;;;81.20;31.55;;;;;;;;;;6270379;28;20098;-67
2022/11/03 00:33:56;;;;;;;69.47;30.45;;;;;;;;;;6272571;28;20045;-64
2022/11/03 00:36:56;;;;;;;66.32;26.25;;;;;;;;;;6266690;28;20076;-65
2022/11/03 00:39:57;;;;;;;61.92;27.13;;;;;;;;;;6264888;28;20146;-67
2022/11/03 00:42:57;;;;;;;67.05;29.83;;;;;;;;;;6266775;28;20053;-68
2022/11/03 00:46:00;;;;;;;68.50;28.08;;;;;;;;;;6267478;28;20095;-65
2022/11/03 00:49:04;;;;;;;73.47;27.95;;;;;;;;;;6266616;28;20566;-66
2022/11/03 00:52:05;;;;;;;72.85;27.23;;;;;;;;;;6266956;28;20053;-66
2022/11/03 00:55:05;;;;;;;70.38;26.08;;;;;;;;;;6262066;28;20412;-64
2022/11/03 00:58:06;;;;;;;63.50;26.02;;;;;;;;;;6257963;28;20056;-65
2022/11/03 01:01:12;;;;;;;70.47;30.55;;;;;;;;;;6265500;28;20045;-65
2022/11/03 01:07:35;;;;;;;62.88;23.48;;;;;;;;;;6264131;28;20075;-67
2022/11/03 01:10:37;;;;;;;60.28;23.95;;;;;;;;;;6286381;28;20058;-64
2022/11/03 01:13:38;;;;;;;61.03;24.20;;;;;;;;;;6277213;28;20061;-65
2022/11/03 01:16:39;;;;;;;56.03;23.02;;;;;;;;;;6268597;28;20044;-64
2022/11/03 01:19:40;;;;;;;57.75;23.25;;;;;;;;;;6285939;28;20071;-65
2022/11/03 01:22:41;;;;;;;60.58;24.42;;;;;;;;;;6278065;28;20053;-64
2022/11/03 01:25:41;;;;;;;59.70;24.60;;;;;;;;;;6271610;28;20040;-63
2022/11/03 01:28:44;;;;;;;56.40;23.92;;;;;;;;;;6269239;28;20830;-66
2022/11/03 01:31:45;;;;;;;63.35;25.58;;;;;;;;;;6269890;28;20450;-65
2022/11/03 01:34:45;;;;;;;58.42;25.83;;;;;;;;;;6269301;28;20063;-66
2022/11/03 01:37:46;;;;;;;59.97;25.27;;;;;;;;;;6270805;28;20041;-63
2022/11/03 01:40:47;;;;;;;67.10;27.73;;;;;;;;;;6295659;28;20063;-66
2022/11/03 01:44:24;;;;;;;73.93;28.08;;;;;;;;;;6271236;28;20041;-67
2022/11/03 01:47:31;;;;;;;57.90;24.35;;;;;;;;;;6266816;28;20044;-65
2022/11/03 01:50:32;;;;;;;66.57;26.02;;;;;;;;;;6277512;28;20048;-66
2022/11/03 01:53:34;;;;;;;54.47;23.10;;;;;;;;;;6291546;28;20132;-65
2022/11/03 01:56:37;;;;;;;53.20;23.08;;;;;;;;;;6269168;28;20099;-65
2022/11/03 01:59:38;;;;;;;58.20;24.00;;;;;;;;;;6269470;28;20079;-67
2022/11/03 02:02:40;;;;;;;52.58;21.70;;;;;;;;;;6270106;28;20045;-64
2022/11/03 02:05:44;;;;;;;59.08;23.33;;;;;;;;;;6267090;28;20067;-65
2022/11/03 02:09:06;;;;;;;57.10;22.63;;;;;;;;;;6268490;28;20053;-64
2022/11/03 02:12:07;;;;;;;;;;;;;;;;;;6296095;28;20045;-66
2022/11/03 02:15:11;;;;;;;61.80;23.67;;;;;;;;;;6268668;28;19921;-65
2022/11/03 02:18:14;;;;;;;56.28;22.92;;;;;;;;;;6268426;28;20792;-63
2022/11/03 02:21:45;;;;;;;54.50;23.95;;;;;;;;;;6267474;28;20122;-63
2022/11/03 02:24:50;;;;;;;57.03;23.48;;;;;;;;;;6265239;28;20041;-63
2022/11/03 02:27:51;;;;;;;66.38;31.75;;;;;;;;;;6266161;28;20076;-66
2022/11/03 02:31:53;;;;;;;69.28;30.23;;;;;;;;;;6269284;28;20051;-67
2022/11/03 02:35:07;;;;;;;91.47;40.38;;;;;;;;;;6152405;28;20597;-68
2022/11/03 02:38:13;;;;;;;102.78;38.63;;;;;;;;;;6274863;28;20041;-63
2022/11/03 02:41:15;;;;;;;77.78;31.70;;;;;;;;;;6254735;28;20088;-63
2022/11/03 02:44:18;;;;;;;69.38;29.70;;;;;;;;;;6270859;28;20146;-63
2022/11/03 02:47:21;;;;;;;63.58;26.20;;;;;;;;;;6267015;28;20410;-63
2022/11/03 02:50:26;;;;;;;63.30;28.00;;;;;;;;;;6261823;28;20472;-63
2022/11/03 02:53:29;;;;;;;68.85;27.88;;;;;;;;;;6265673;28;20538;-63
2022/11/03 02:56:33;;;;;;;65.78;28.13;;;;;;;;;;6259373;28;20501;-66
2022/11/03 02:59:39;;;;;;;72.32;31.63;;;;;;;;;;6266411;28;20477;-67
2022/11/03 03:02:52;;;;;;;73.07;31.80;;;;;;;;;;6269829;28;20048;-63
2022/11/03 03:05:58;;;;;;;78.38;31.17;;;;;;;;;;6263888;28;20060;-67
2022/11/03 03:09:08;;;;;;;69.88;29.67;;;;;;;;;;6266405;28;20523;-63
2022/11/03 03:12:10;;;;;;;72.55;29.48;;;;;;;;;;6268946;28;20049;-66
2022/11/03 03:15:12;;;;;;;68.22;28.55;;;;;;;;;;6267562;28;20052;-62
2022/11/03 03:18:20;;;;;;;71.47;30.75;;;;;;;;;;6265733;28;20136;-63
2022/11/03 03:21:25;;;;;;;75.97;30.42;;;;;;;;;;6267483;28;20041;-64
2022/11/03 03:24:51;;;;;;;78.15;31.60;;;;;;;;;;6265613;28;20886;-65
2022/11/03 03:27:59;;;;;;;77.55;32.10;;;;;;;;;;6266783;28;20386;-66
2022/11/03 03:31:01;;;;;;;78.22;32.55;;;;;;;;;;6266838;28;20143;-63
2022/11/03 03:34:03;;;;;;;72.95;29.77;;;;;;;;;;6267691;28;20136;-64
2022/11/03 03:37:06;;;;;;;68.07;30.08;;;;;;;;;;6268465;28;20424;-64
2022/11/03 03:40:10;;;;;;;77.60;32.85;;;;;;;;;;6263670;28;20056;-65
2022/11/03 03:43:13;;;;;;;79.93;33.00;;;;;;;;;;6271189;28;20468;-63
2022/11/03 03:46:16;;;;;;;93.10;37.95;;;;;;;;;;6277313;28;20048;-65
2022/11/03 03:49:16;;;;;;;82.40;35.83;;;;;;;;;;6271300;28;20136;-65
2022/11/03 03:52:17;;;;;;;86.90;35.40;;;;;;;;;;6266411;28;20076;-64
2022/11/03 03:55:20;;;;;;;88.38;35.13;;;;;;;;;;6268205;28;20048;-64
2022/11/03 03:58:21;;;;;;;88.75;34.50;;;;;;;;;;6262930;28;20760;-64
2022/11/03 04:01:21;;;;;;;88.13;34.30;;;;;;;;;;6269490;28;20060;-66
2022/11/03 04:04:22;;;;;;;82.90;36.00;;;;;;;;;;6262206;28;20098;-65
2022/11/03 04:22:15;;;;;;;86.03;35.42;;;;;;;;;;6268079;28;20040;-66
2022/11/03 04:24:00;;;;;;;95.40;38.35;;;;;;;;;;6269571;28;20439;-64
2022/11/03 04:27:15;;;;;;;91.78;37.60;;;;;;;;;;6263308;28;20041;-67
2022/11/03 04:30:18;;;;;;;87.25;36.35;;;;;;;;;;6267516;28;20060;-65
2022/11/03 04:33:20;;;;;;;86.80;37.47;;;;;;;;;;6277085;28;20506;-63
2022/11/03 04:36:23;;;;;;;99.28;38.22;;;;;;;;;;6273264;28;20605;-65
2022/11/03 04:39:23;;;;;;;;;;;;;;;;;;6287720;28;20091;-65
2022/11/03 04:42:24;;;;;;;88.07;35.08;;;;;;;;;;6271097;28;19929;-65
2022/11/03 04:45:29;;;;;;;90.25;37.55;;;;;;;;;;6266191;28;20550;-62
2022/11/03 04:48:32;;;;;;;94.60;37.38;;;;;;;;;;6264220;28;20039;-63
2022/11/03 04:51:33;;;;;;;96.72;37.95;;;;;;;;;;6269827;28;20052;-63
2022/11/03 04:54:35;;;;;;;94.17;38.23;;;;;;;;;;6259256;28;20388;-66
2022/11/03 04:57:35;;;;;;;111.88;39.22;;;;;;;;;;6272617;28;20293;-62
2022/11/03 05:00:36;;;;;;;91.35;38.10;;;;;;;;;;6269604;28;20833;-63
2022/11/03 05:03:38;;;;;;;86.13;36.42;;;;;;;;;;6271948;28;20053;-66
2022/11/03 05:06:41;;;;;;;84.60;36.33;;;;;;;;;;6281481;28;20477;-62
2022/11/03 05:09:41;;;;;;;81.40;34.55;;;;;;;;;;6284536;28;20050;-62
2022/11/03 05:12:43;;;;;;;75.50;33.55;;;;;;;;;;6276786;28;20486;-64
2022/11/03 05:15:44;;;;;;;80.93;33.53;;;;;;;;;;6274933;28;20040;-63
2022/11/03 05:18:48;;;;;;;80.43;33.75;;;;;;;;;;6281418;28;20103;-66
2022/11/03 05:21:49;;;;;;;81.82;34.85;;;;;;;;;;6271032;28;20075;-66
2022/11/03 05:24:56;;;;;;;89.47;36.70;;;;;;;;;;6271943;28;20052;-62
2022/11/03 05:27:57;;;;;;;79.20;34.45;;;;;;;;;;6269941;28;20060;-67
2022/11/03 05:30:58;;;;;;;88.03;35.83;;;;;;;;;;6267599;28;20483;-65
2022/11/03 05:34:01;;;;;;;90.05;35.95;;;;;;;;;;6271099;28;20049;-62
2022/11/03 05:37:04;;;;;;;83.60;35.97;;;;;;;;;;6270917;28;20052;-66
2022/11/03 05:40:14;;;;;;;93.88;36.20;;;;;;;;;;6268070;28;20107;-65
2022/11/03 05:43:14;;;;;;;111.43;38.47;;;;;;;;;;6270786;28;20049;-64
2022/11/03 05:46:15;;;;;;;86.13;35.17;;;;;;;;;;6272122;28;20059;-64
2022/11/03 05:49:17;;;;;;;85.78;36.28;;;;;;;;;;6270320;28;20140;-65
2022/11/03 05:52:25;;;;;;;84.18;36.53;;;;;;;;;;6271950;28;20051;-67
2022/11/03 05:55:30;;;;;;;92.22;37.08;;;;;;;;;;6288446;28;20053;-65
2022/11/03 05:58:34;;;;;;;87.53;34.72;;;;;;;;;;6271995;28;20055;-64
2022/11/03 06:01:38;;;;;;;86.72;35.88;;;;;;;;;;6267432;28;20546;-64
2022/11/03 06:04:39;;;;;;;83.07;34.30;;;;;;;;;;6264028;28;20445;-65
2022/11/03 06:07:40;;;;;;;88.85;35.70;;;;;;;;;;6270447;28;20153;-63
2022/11/03 06:10:46;;;;;;;87.63;34.65;;;;;;;;;;6274068;28;20871;-65
2022/11/03 06:13:46;;;;;;;84.72;34.47;;;;;;;;;;6268904;28;20475;-65
2022/11/03 06:16:53;;;;;;;91.90;37.78;;;;;;;;;;6265448;28;20041;-64
2022/11/03 06:19:59;;;;;;;83.65;35.85;;;;;;;;;;6267264;28;20073;-66
2022/11/03 06:23:00;;;;;;;84.40;35.13;;;;;;;;;;6267406;28;20109;-66
2022/11/03 06:26:01;;;;;;;84.78;35.85;;;;;;;;;;6270865;28;20079;-63
2022/11/03 06:29:02;;;;;;;90.80;36.03;;;;;;;;;;6268852;28;20041;-65
2022/11/03 06:32:03;;;;;;;92.97;39.92;;;;;;;;;;6265638;28;20090;-64
2022/11/03 06:35:10;;;;;;;92.95;36.45;;;;;;;;;;6271331;28;20064;-65
2022/11/03 06:38:16;;;;;;;101.10;40.20;;;;;;;;;;6268759;28;20052;-65
2022/11/03 06:41:23;;;;;;;97.30;40.85;;;;;;;;;;6268881;28;20064;-65
2022/11/03 06:44:27;;;;;;;96.88;41.72;;;;;;;;;;6268968;28;20491;-64
2022/11/03 06:47:28;;;;;;;98.85;41.25;;;;;;;;;;6269792;28;20122;-64
2022/11/03 06:50:31;;;;;;;87.03;38.63;;;;;;;;;;6268747;28;20498;-64
2022/11/03 06:53:32;;;;;;;101.43;40.65;;;;;;;;;;6266638;28;20049;-64
2022/11/03 06:56:35;;;;;;;105.57;43.80;;;;;;;;;;6263889;28;20095;-67
2022/11/03 06:59:36;;;;;;;109.20;42.85;;;;;;;;;;6268414;28;20059;-65
2022/11/03 07:03:09;;;;;;;122.18;44.25;;;;;;;;;;6265781;28;20677;-65
2022/11/03 07:06:10;;;;;;;135.55;55.28;;;;;;;;;;6266971;28;20052;-65
2022/11/03 07:09:15;;;;;;;156.15;67.05;;;;;;;;;;6269168;28;20367;-67
2022/11/03 07:12:17;;;;;;;179.93;68.30;;;;;;;;;;6267723;28;20036;-68
2022/11/03 07:15:32;;;;;;;194.80;66.68;;;;;;;;;;6273826;28;20075;-65
2022/11/03 07:18:41;;;;;;;193.45;67.68;;;;;;;;;;6272126;28;20048;-68
2022/11/03 07:21:53;;;;;;;200.85;72.40;;;;;;;;;;6280346;28;20051;-68
2022/11/03 07:24:58;;;;;;;202.02;74.55;;;;;;;;;;6269169;28;20052;-66
2022/11/03 07:28:01;;;;;;;215.35;77.78;;;;;;;;;;6272698;28;20441;-66
2022/11/03 07:31:12;;;;;;;221.27;79.25;;;;;;;;;;6289135;28;20561;-66
2022/11/03 07:34:19;;;;;;;261.30;95.45;;;;;;;;;;6282322;28;20047;-68
2022/11/03 07:37:24;;;;;;;252.05;89.55;;;;;;;;;;6288548;28;20056;-68
2022/11/03 07:40:26;;;;;;;209.60;76.03;;;;;;;;;;6291938;28;20052;-67
2022/11/03 07:43:29;;;;;;;201.68;76.72;;;;;;;;;;6291126;28;20052;-66
2022/11/03 07:46:29;;;;;;;199.63;75.22;;;;;;;;;;6293341;28;20181;-66
2022/11/03 07:49:30;;;;;;;223.77;89.18;;;;;;;;;;6288578;28;20549;-68
2022/11/03 07:52:30;;;;;;;214.45;79.85;;;;;;;;;;6289739;28;20044;-68
2022/11/03 07:55:31;;;;;;;214.98;83.00;;;;;;;;;;6279255;28;20699;-66
2022/11/03 07:58:38;;;;;;;230.10;88.65;;;;;;;;;;6265169;28;20628;-68
2022/11/03 08:01:48;;;;;;;204.23;80.32;;;;;;;;;;6271253;28;20412;-67
2022/11/03 08:04:49;;;;;;;158.43;61.88;;;;;;;;;;6267776;28;20049;-67
2022/11/03 08:07:49;;;;;;;170.25;67.32;;;;;;;;;;6280150;28;20048;-67
2022/11/03 08:10:50;;;;;;;166.00;61.97;;;;;;;;;;6289503;28;20044;-66
2022/11/03 08:13:51;;;;;;;136.13;52.40;;;;;;;;;;6290966;28;20401;-66
2022/11/03 08:16:51;;;;;;;117.07;44.42;;;;;;;;;;6290951;28;20466;-68
2022/11/03 08:19:52;;;;;;;94.93;38.85;;;;;;;;;;6288943;28;20044;-68
2022/11/03 08:22:52;;;;;;;130.20;44.67;;;;;;;;;;6291014;28;20090;-68
2022/11/03 08:25:53;;;;;;;98.18;35.97;;;;;;;;;;6291456;28;20041;-68
2022/11/03 08:28:53;;;;;;;90.10;33.17;;;;;;;;;;6273285;28;20049;-68
2022/11/03 08:31:54;;;;;;;78.38;30.98;;;;;;;;;;6274163;28;20044;-68
2022/11/03 08:34:55;;;;;;;71.30;26.85;;;;;;;;;;6290877;28;20041;-67
2022/11/03 08:37:55;;;;;;;73.22;27.45;;;;;;;;;;6288950;28;20102;-68
2022/11/03 08:40:59;;;;;;;54.53;22.88;;;;;;;;;;6291054;28;20044;-66
2022/11/03 08:43:59;;;;;;;56.15;21.15;;;;;;;;;;6270513;28;20099;-66
2022/11/03 08:47:00;;;;;;;61.75;21.50;;;;;;;;;;6269197;28;21644;-67
2022/11/03 08:50:01;;;;;;;64.47;24.27;;;;;;;;;;6265491;28;20044;-68
2022/11/03 08:53:01;;;;;;;62.83;22.73;;;;;;;;;;6268964;28;20073;-67
2022/11/03 08:56:02;;;;;;;67.50;23.70;;;;;;;;;;6274543;28;20060;-67
2022/11/03 08:59:02;;;;;;;59.40;22.02;;;;;;;;;;6265277;28;20095;-67
2022/11/03 09:02:03;;;;;;;66.03;24.52;;;;;;;;;;6266945;28;20048;-67
2022/11/03 09:05:06;;;;;;;66.22;25.02;;;;;;;;;;6274207;28;20049;-68
2022/11/03 09:08:07;;;;;;;72.20;27.38;;;;;;;;;;6286357;28;20097;-67
2022/11/03 09:11:07;;;;;;;61.22;25.27;;;;;;;;;;6290556;28;20484;-69
2022/11/03 09:14:08;;;;;;;65.43;25.33;;;;;;;;;;6275519;28;20381;-68
2022/11/03 09:17:08;;;;;;;66.70;26.05;;;;;;;;;;6267753;28;20746;-68
2022/11/03 09:20:10;;;;;;;64.70;26.30;;;;;;;;;;6263515;28;20044;-69
2022/11/03 09:23:10;;;;;;;72.28;27.25;;;;;;;;;;6265444;28;20479;-68
2022/11/03 09:26:11;;;;;;;62.90;24.98;;;;;;;;;;6265342;28;20059;-68
2022/11/03 09:29:12;;;;;;;64.68;24.80;;;;;;;;;;6265486;28;20499;-76
2022/11/03 09:32:12;;;;;;;56.25;22.60;;;;;;;;;;6265837;28;20040;-69
2022/11/03 09:35:14;;;;;;;55.97;20.92;;;;;;;;;;6263923;28;20056;-69
2022/11/03 09:38:14;;;;;;;45.78;19.00;;;;;;;;;;6267867;28;20041;-70
2022/11/03 09:41:18;;;;;;;43.78;17.55;;;;;;;;;;6269938;28;20049;-69
2022/11/03 09:44:19;;;;;;;43.55;15.20;;;;;;;;;;6271205;28;20044;-68
2022/11/03 09:47:28;;;;;;;29.75;13.05;;;;;;;;;;6272343;28;20450;-69
2022/11/03 09:50:28;;;;;;;27.33;10.40;;;;;;;;;;6268004;28;20835;-68
2022/11/03 09:53:30;;;;;;;27.80;10.48;;;;;;;;;;6271925;28;20045;-69
2022/11/03 09:56:33;;;;;;;31.25;11.13;;;;;;;;;;6269522;28;20400;-69
2022/11/03 09:59:36;;;;;;;24.85;10.45;;;;;;;;;;6269164;28;20040;-69
2022/11/03 10:02:38;;;;;;;29.08;12.00;;;;;;;;;;6267278;28;20052;-69
2022/11/03 10:05:41;;;;;;;23.95;10.40;;;;;;;;;;6268335;28;20064;-69
2022/11/03 10:08:42;;;;;;;;;;;;;;;;;;6272039;28;20048;-68
2022/11/03 10:11:44;;;;;;;28.13;12.10;;;;;;;;;;6267028;28;19935;-69
2022/11/03 10:14:45;;;;;;;22.60;9.77;;;;;;;;;;6266704;28;20072;-69
2022/11/03 10:17:49;;;;;;;25.90;9.15;;;;;;;;;;6267535;28;20045;-70
2022/11/03 10:20:49;;;;;;;21.48;8.70;;;;;;;;;;6264913;28;20049;-70
2022/11/03 10:23:50;;;;;;;26.90;9.50;;;;;;;;;;6269579;28;20059;-70
2022/11/03 10:26:53;;;;;;;24.20;9.23;;;;;;;;;;6268678;28;20399;-70
2022/11/03 10:30:11;;;;;;;25.25;10.30;;;;;;;;;;6268603;28;20053;-70
2022/11/03 10:33:31;;;;;;;23.02;9.40;;;;;;;;;;6265446;28;20082;-69
2022/11/03 10:36:33;;;;;;;26.95;8.85;;;;;;;;;;6269862;28;20434;-66
2022/11/03 10:39:33;;;;;;;23.55;10.15;;;;;;;;;;6268095;28;20048;-69
2022/11/03 10:42:34;;;;;;;23.27;9.38;;;;;;;;;;6267052;28;20102;-70
2022/11/03 10:45:34;;;;;;;24.02;9.93;;;;;;;;;;6269415;28;20044;-69
2022/11/03 10:48:35;;;;;;;22.58;9.38;;;;;;;;;;6268518;28;20952;-69
2022/11/03 10:51:36;;;;;;;21.83;9.15;;;;;;;;;;6269275;28;20044;-68
2022/11/03 10:54:37;;;;;;;22.43;8.60;;;;;;;;;;6269557;28;20041;-69
2022/11/03 10:57:37;;;;;;;21.90;8.75;;;;;;;;;;6269152;28;20056;-69
2022/11/03 11:00:41;;;;;;;19.02;7.32;;;;;;;;;;6270670;28;20052;-70
2022/11/03 11:03:43;;;;;;;17.60;7.30;;;;;;;;;;6266151;28;20053;-70
2022/11/03 11:06:45;;;;;;;21.48;7.68;;;;;;;;;;6265654;28;20041;-69
2022/11/03 11:09:45;;;;;;;19.37;6.97;;;;;;;;;;6266896;28;20045;-70
2022/11/03 11:13:02;;;;;;;17.45;7.22;;;;;;;;;;6264100;28;20390;-70
2022/11/03 11:16:03;;;;;;;24.30;7.60;;;;;;;;;;6265419;28;20064;-70
2022/11/03 11:19:04;;;;;;;16.13;6.38;;;;;;;;;;6268564;28;20044;-69
2022/11/03 11:22:12;;;;;;;18.73;7.68;;;;;;;;;;6266754;28;20460;-71
2022/11/03 11:25:13;;;;;;;22.10;7.68;;;;;;;;;;6262223;28;20140;-69
2022/11/03 11:28:17;;;;;;;15.50;5.85;;;;;;;;;;6268257;28;20126;-70
2022/11/03 11:31:21;;;;;;;12.80;5.10;;;;;;;;;;6268223;28;20045;-70
2022/11/03 11:34:22;;;;;;;13.55;5.55;;;;;;;;;;6269283;28;21072;-68
2022/11/03 11:37:23;;;;;;;17.10;6.13;;;;;;;;;;6265486;28;20052;-70
2022/11/03 11:40:23;;;;;;;19.13;6.43;;;;;;;;;;6270292;28;20063;-69
2022/11/03 11:43:25;;;;;;;15.85;5.60;;;;;;;;;;6267916;28;20048;-70
2022/11/03 11:46:38;;;;;;;13.52;5.28;;;;;;;;;;6267147;28;20045;-68
2022/11/03 11:49:39;;;;;;;17.65;5.85;;;;;;;;;;6269737;28;20053;-69
2022/11/03 11:52:59;;;;;;;12.80;5.13;;;;;;;;;;6268532;28;20065;-69
2022/11/03 11:56:01;;;;;;;16.77;5.15;;;;;;;;;;6265609;28;20053;-69
2022/11/03 11:59:02;;;;;;;12.70;5.47;;;;;;;;;;6268520;28;20049;-70
2022/11/03 12:02:15;;;;;;;14.70;5.30;;;;;;;;;;6263790;28;20508;-70
2022/11/03 12:05:26;;;;;;;13.23;5.80;;;;;;;;;;6267181;28;20155;-69
2022/11/03 12:08:29;;;;;;;12.90;5.15;;;;;;;;;;6265552;28;20059;-69
2022/11/03 12:11:43;;;;;;;18.27;6.30;;;;;;;;;;6269452;28;20060;-69
2022/11/03 12:14:45;;;;;;;12.95;5.25;;;;;;;;;;6266730;28;20041;-70
2022/11/03 12:17:45;;;;;;;14.82;6.03;;;;;;;;;;6264547;28;20055;-70
2022/11/03 12:20:46;;;;;;;18.65;5.63;;;;;;;;;;6265084;28;20580;-70
2022/11/03 12:23:47;;;;;;;14.90;6.00;;;;;;;;;;6266822;28;20102;-69
2022/11/03 12:26:47;;;;;;;16.80;6.68;;;;;;;;;;6263848;28;20059;-70
2022/11/03 12:29:48;;;;;;;24.05;9.13;;;;;;;;;;6263614;28;20036;-70
2022/11/03 12:32:50;;;;;;;15.77;6.82;;;;;;;;;;6266199;28;20052;-70
2022/11/03 12:35:51;;;;;;;17.98;5.80;;;;;;;;;;6264903;28;20052;-70
2022/11/03 12:38:52;;;;;;;15.07;6.25;;;;;;;;;;6253295;28;20064;-71
2022/11/03 12:41:52;;;;;;;16.85;6.32;;;;;;;;;;6265890;28;20048;-70
2022/11/03 12:44:53;;;;;;;14.93;6.60;;;;;;;;;;6266896;28;20129;-70
2022/11/03 12:47:53;;;;;;;22.48;7.13;;;;;;;;;;6265685;28;20052;-70
2022/11/03 12:50:54;;;;;;;17.92;7.13;;;;;;;;;;6265559;28;20060;-70
2022/11/03 12:53:55;;;;;;;21.60;7.43;;;;;;;;;;6270406;28;20036;-69
2022/11/03 12:56:55;;;;;;;24.65;8.82;;;;;;;;;;6287200;28;20469;-70
2022/11/03 12:59:56;;;;;;;15.30;7.10;;;;;;;;;;6268197;28;20056;-70
2022/11/03 13:02:57;;;;;;;17.27;7.40;;;;;;;;;;6268926;28;20064;-70
2022/11/03 13:05:58;;;;;;;18.38;6.55;;;;;;;;;;6266454;28;20079;-69
2022/11/03 13:08:59;;;;;;;24.23;8.80;;;;;;;;;;6264704;28;21056;-72
2022/11/03 13:15:18;;;;;;;23.70;9.07;;;;;;;;;;6270718;28;20043;-70
2022/11/03 13:18:20;;;;;;;24.23;8.60;;;;;;;;;;6267202;28;20819;-69
2022/11/03 13:21:20;;;;;;;22.17;7.63;;;;;;;;;;6269461;28;21615;-69
2022/11/03 13:24:21;;;;;;;19.10;7.50;;;;;;;;;;6273242;28;20055;-68
2022/11/03 13:27:22;;;;;;;18.25;6.28;;;;;;;;;;6288510;28;20051;-70
2022/11/03 13:30:25;;;;;;;18.10;6.43;;;;;;;;;;6272916;28;20037;-69
2022/11/03 13:33:25;;;;;;;15.45;5.65;;;;;;;;;;6271558;28;20048;-69
2022/11/03 13:36:26;;;;;;;19.13;6.10;;;;;;;;;;6270517;28;20506;-69
2022/11/03 13:39:27;;;;;;;15.50;5.82;;;;;;;;;;6268729;28;20037;-70
2022/11/03 13:42:27;;;;;;;13.38;6.20;;;;;;;;;;6269169;28;20071;-69
2022/11/03 13:45:28;;;;;;;15.80;6.68;;;;;;;;;;6269540;28;20041;-70
2022/11/03 13:48:29;;;;;;;17.35;6.75;;;;;;;;;;6259418;28;20040;-69
2022/11/03 13:51:29;;;;;;;15.52;6.43;;;;;;;;;;6264647;28;20051;-69
2022/11/03 13:54:30;;;;;;;21.30;6.38;;;;;;;;;;6272858;28;20045;-69
2022/11/03 13:57:30;;;;;;;16.67;6.50;;;;;;;;;;6273654;28;20132;-69
2022/11/03 14:00:31;;;;;;;15.35;6.55;;;;;;;;;;6277701;28;20407;-70
2022/11/03 14:03:32;;;;;;;16.98;6.07;;;;;;;;;;6269387;28;20053;-68
2022/11/03 14:06:32;;;;;;;17.25;7.30;;;;;;;;;;6278237;28;20048;-70
2022/11/03 14:09:33;;;;;;;17.45;7.10;;;;;;;;;;6288231;28;20491;-69
2022/11/03 14:12:35;;;;;;;22.83;7.60;;;;;;;;;;6271772;28;20049;-69
2022/11/03 14:15:36;;;;;;;21.25;7.65;;;;;;;;;;6289036;28;20044;-70
2022/11/03 14:18:36;;;;;;;23.42;9.18;;;;;;;;;;6282563;28;20045;-69
2022/11/03 14:21:41;;;;;;;22.10;8.88;;;;;;;;;;6278660;28;20436;-69
2022/11/03 14:24:42;;;;;;;23.73;8.93;;;;;;;;;;6287825;28;20414;-69
2022/11/03 14:27:42;;;;;;;23.75;8.80;;;;;;;;;;6283448;28;20044;-67
2022/11/03 14:30:43;;;;;;;23.58;9.18;;;;;;;;;;6278804;28;20048;-69
2022/11/03 14:33:44;;;;;;;37.58;12.13;;;;;;;;;;6283622;28;20064;-68
2022/11/03 14:36:44;;;;;;;27.65;11.75;;;;;;;;;;6281580;28;20055;-68
2022/11/03 14:39:45;;;;;;;30.73;11.07;;;;;;;;;;6281740;28;20080;-67
2022/11/03 14:42:45;;;;;;;28.27;10.35;;;;;;;;;;6278898;28;20049;-68
2022/11/03 14:45:46;;;;;;;24.73;9.88;;;;;;;;;;6289938;28;20063;-68
2022/11/03 14:48:47;;;;;;;28.23;9.57;;;;;;;;;;6291854;28;20067;-67
2022/11/03 14:51:47;;;;;;;30.35;10.02;;;;;;;;;;6293321;28;20048;-69
2022/11/03 14:54:48;;;;;;;44.15;16.75;;;;;;;;;;6289036;28;20048;-69
2022/11/03 14:57:49;;;;;;;39.83;15.10;;;;;;;;;;6281327;28;20056;-69
2022/11/03 15:00:49;;;;;;;46.17;14.23;;;;;;;;;;6280709;28;20411;-68
2022/11/03 15:03:50;;;;;;;39.42;14.90;;;;;;;;;;6286275;28;20136;-69
2022/11/03 15:06:51;;;;;;;71.63;29.40;;;;;;;;;;6291229;28;20079;-69
2022/11/03 15:09:52;;;;;;;64.28;26.40;;;;;;;;;;6284270;28;20044;-69
2022/11/03 15:12:52;;;;;;;59.13;24.77;;;;;;;;;;6289063;28;20071;-70
2022/11/03 15:15:53;;;;;;;57.65;23.40;;;;;;;;;;6289009;28;20143;-69
2022/11/03 15:18:54;;;;;;;51.50;22.10;;;;;;;;;;6281483;28;20391;-69
2022/11/03 15:21:54;;;;;;;88.82;32.38;;;;;;;;;;6281801;28;20095;-68
2022/11/03 15:24:55;;;;;;;84.90;32.67;;;;;;;;;;6281136;28;20090;-68
2022/11/03 15:27:56;;;;;;;53.33;20.65;;;;;;;;;;6283865;28;20071;-67
2022/11/03 15:30:57;;;;;;;42.15;15.15;;;;;;;;;;6290854;28;20079;-69
2022/11/03 15:33:57;;;;;;;46.60;18.25;;;;;;;;;;6291776;28;20052;-69
2022/11/03 15:36:58;;;;;;;52.88;23.05;;;;;;;;;;6292349;28;20056;-68
2022/11/03 15:39:59;;;;;;;50.13;20.83;;;;;;;;;;6291347;28;20502;-69
2022/11/03 15:42:59;;;;;;;50.50;21.00;;;;;;;;;;6292356;28;20047;-69
2022/11/03 15:46:00;;;;;;;49.15;21.25;;;;;;;;;;6291361;28;20045;-69
2022/11/03 15:49:00;;;;;;;59.20;23.02;;;;;;;;;;6291480;28;20471;-68
2022/11/03 15:52:01;;;;;;;72.32;31.17;;;;;;;;;;6291590;28;20048;-69
2022/11/03 15:55:03;;;;;;;56.20;25.05;;;;;;;;;;6291540;28;20047;-68
2022/11/03 15:58:03;;;;;;;74.13;28.05;;;;;;;;;;6291046;28;20484;-68
2022/11/03 16:01:04;;;;;;;112.60;38.72;;;;;;;;;;6276379;28;20036;-69
2022/11/03 16:04:04;;;;;;;116.50;40.05;;;;;;;;;;6275433;28;20103;-69
2022/11/03 16:07:05;;;;;;;92.15;32.28;;;;;;;;;;6260111;28;20049;-69
2022/11/03 16:10:06;;;;;;;69.10;25.08;;;;;;;;;;6267800;28;20053;-69
2022/11/03 16:13:06;;;;;;;76.72;25.70;;;;;;;;;;6286476;28;20074;-69
2022/11/03 16:16:07;;;;;;;81.13;27.38;;;;;;;;;;6292539;28;20057;-68
2022/11/03 16:19:09;;;;;;;70.85;24.52;;;;;;;;;;6287266;28;20471;-70
2022/11/03 16:22:09;;;;;;;72.82;25.75;;;;;;;;;;6284355;28;20045;-68
2022/11/03 16:25:10;;;;;;;95.72;30.05;;;;;;;;;;6290776;28;20051;-69
2022/11/03 16:28:11;;;;;;;71.72;28.02;;;;;;;;;;6290362;28;20067;-69
2022/11/03 16:31:12;;;;;;;54.30;20.83;;;;;;;;;;6290350;28;20040;-69
2022/11/03 16:34:12;;;;;;;49.15;19.33;;;;;;;;;;6291218;28;20699;-69
2022/11/03 16:37:14;;;;;;;49.03;17.98;;;;;;;;;;6285918;28;20053;-69
2022/11/03 16:40:15;;;;;;;48.30;20.10;;;;;;;;;;6288321;28;20052;-69
2022/11/03 16:43:15;;;;;;;47.22;19.92;;;;;;;;;;6289763;28;20040;-69
2022/11/03 16:46:16;;;;;;;58.90;23.45;;;;;;;;;;6291094;28;20041;-69
2022/11/03 16:49:16;;;;;;;48.08;20.40;;;;;;;;;;6284766;28;20044;-68
2022/11/03 16:52:17;;;;;;;34.60;15.68;;;;;;;;;;6289700;28;20576;-69
2022/11/03 16:55:18;;;;;;;34.90;14.48;;;;;;;;;;6290109;28;20044;-69
2022/11/03 16:58:19;;;;;;;34.47;15.30;;;;;;;;;;6289478;28;20071;-68
2022/11/03 17:01:19;;;;;;;42.03;15.40;;;;;;;;;;6288843;28;20411;-69
2022/11/03 17:04:20;;;;;;;39.80;15.00;;;;;;;;;;6290658;28;20108;-70
2022/11/03 17:07:20;;;;;;;35.33;15.98;;;;;;;;;;6291503;28;20049;-69
2022/11/03 17:10:22;;;;;;;38.13;15.18;;;;;;;;;;6287770;28;20083;-68
2022/11/03 17:13:22;;;;;;;37.67;15.82;;;;;;;;;;6290730;28;20103;-66
2022/11/03 17:16:23;;;;;;;33.92;14.40;;;;;;;;;;6291005;28;20045;-68
2022/11/03 17:19:23;;;;;;;32.63;13.43;;;;;;;;;;6281173;28;20130;-68
2022/11/03 17:22:24;;;;;;;34.95;14.43;;;;;;;;;;6284663;28;20153;-67
2022/11/03 17:25:24;;;;;;;30.67;13.02;;;;;;;;;;6283662;28;20171;-67
2022/11/03 17:28:25;;;;;;;33.40;14.05;;;;;;;;;;6283226;28;20419;-68
2022/11/03 17:31:26;;;;;;;31.48;13.57;;;;;;;;;;6272923;28;20114;-67
2022/11/03 17:34:26;;;;;;;29.50;13.68;;;;;;;;;;6273016;28;20049;-68
2022/11/03 17:37:27;;;;;;;33.40;13.48;;;;;;;;;;6283479;28;20045;-67
2022/11/03 17:40:28;;;;;;;35.20;13.30;;;;;;;;;;6281530;28;20452;-67
2022/11/03 17:43:30;;;;;;;26.15;12.02;;;;;;;;;;6275128;28;20099;-66
2022/11/03 17:46:30;;;;;;;35.50;14.00;;;;;;;;;;6286816;28;20059;-68
2022/11/03 17:49:31;;;;;;;33.95;14.05;;;;;;;;;;6286773;28;20495;-69
2022/11/03 17:52:34;;;;;;;34.80;14.50;;;;;;;;;;6282870;28;20764;-67
2022/11/03 17:55:34;;;;;;;34.20;14.45;;;;;;;;;;6283575;28;20053;-67
2022/11/03 17:58:36;;;;;;;41.22;14.00;;;;;;;;;;6288067;28;20047;-71
2022/11/03 18:01:37;;;;;;;35.90;14.07;;;;;;;;;;6283745;28;20056;-69
2022/11/03 18:04:38;;;;;;;36.28;14.30;;;;;;;;;;6292429;28;20058;-68
2022/11/03 18:07:38;;;;;;;41.47;16.15;;;;;;;;;;6294336;28;20044;-65